createdAt,value
2023-12-18T00:00:46.675Z,1.4
2023-12-18T00:05:46.726Z,1.5
2023-12-18T00:10:46.810Z,1.6
2023-12-18T00:15:46.859Z,1.6
2023-12-18T00:20:46.952Z,1.6
2023-12-18T00:25:47.014Z,1.6
2023-12-18T00:30:47.188Z,2
2023-12-18T00:35:47.147Z,1.5
2023-12-18T00:40:47.259Z,1.3
2023-12-18T00:45:47.352Z,1.8
2023-12-18T00:50:47.495Z,1.3
2023-12-18T00:55:47.612Z,1.6
2023-12-18T01:00:47.646Z,1.5
2023-12-18T01:05:47.636Z,1.7
2023-12-18T01:10:48.249Z,1.3
2023-12-18T01:15:47.822Z,1.9
2023-12-18T01:20:47.821Z,2
2023-12-18T01:25:47.942Z,1.7
2023-12-18T01:30:48.057Z,1.4
2023-12-18T01:35:48.063Z,1.4
2023-12-18T01:40:48.157Z,1.8
2023-12-18T01:45:48.269Z,1.6
2023-12-18T01:50:53.656Z,2.1
2023-12-18T01:55:48.357Z,1.6
2023-12-18T02:00:48.475Z,1.5
2023-12-18T02:05:48.539Z,1.8
2023-12-18T02:10:48.600Z,1.9
2023-12-18T02:15:48.652Z,2.1
2023-12-18T02:20:48.821Z,1.7
2023-12-18T02:25:48.861Z,1.5
2023-12-18T02:30:49.078Z,1.8
2023-12-18T02:35:48.989Z,2.2
2023-12-18T02:40:49.058Z,2
2023-12-18T02:45:49.217Z,2
2023-12-18T02:50:49.239Z,2.8
2023-12-18T02:55:49.287Z,3.2
2023-12-18T03:00:49.373Z,2
2023-12-18T03:05:49.467Z,2.7
2023-12-18T03:10:49.441Z,3.5
2023-12-18T03:15:49.610Z,2.4
2023-12-18T03:20:49.622Z,2.9
2023-12-18T03:25:49.659Z,2.7
2023-12-18T03:30:49.777Z,2.9
2023-12-18T03:35:49.885Z,3
2023-12-18T03:40:49.815Z,2.7
2023-12-18T03:45:49.876Z,2.5
2023-12-18T03:50:49.889Z,2.3
2023-12-18T03:55:49.942Z,2.4
2023-12-18T04:00:50.080Z,2.2
2023-12-18T04:05:49.996Z,2.7
2023-12-18T04:10:50.032Z,2.6
2023-12-18T04:15:50.169Z,2.5
2023-12-18T04:20:50.105Z,3.2
2023-12-18T04:25:50.179Z,2.1
2023-12-18T04:30:50.201Z,2.2
2023-12-18T04:35:50.292Z,3.1
2023-12-18T04:40:50.310Z,2.2
2023-12-18T04:45:50.360Z,3.4
2023-12-18T04:50:50.384Z,2.8
2023-12-18T04:55:50.462Z,3.4
2023-12-18T05:05:50.587Z,3.8
2023-12-18T05:10:50.494Z,3.9
2023-12-18T05:15:50.592Z,4
2023-12-18T05:20:50.547Z,3.9
2023-12-18T05:25:50.519Z,3.7
2023-12-18T05:30:50.644Z,4.2
2023-12-18T05:35:50.510Z,3.9
2023-12-18T05:40:50.587Z,4.2
2023-12-18T05:45:50.532Z,3.9
2023-12-18T05:50:50.508Z,4.5
2023-12-18T05:55:50.515Z,4.7
2023-12-18T06:00:50.588Z,4.3
2023-12-18T06:05:50.520Z,4.5
2023-12-18T06:10:50.538Z,4.5
2023-12-18T06:15:50.538Z,4.7
2023-12-18T06:20:50.491Z,3.9
2023-12-18T06:25:50.467Z,4
2023-12-18T06:30:50.560Z,4.3
2023-12-18T06:35:50.498Z,4.7
2023-12-18T06:40:50.452Z,4.5
2023-12-18T06:45:50.527Z,4.6
2023-12-18T06:50:50.527Z,4.4
2023-12-18T06:55:50.537Z,5.5
2023-12-18T07:00:50.573Z,4.6
2023-12-18T07:05:50.528Z,4.8
2023-12-18T07:10:50.510Z,5.2
2023-12-18T07:15:50.567Z,4.4
2023-12-18T07:20:50.495Z,4.6
2023-12-18T07:26:05.605Z,5
2023-12-18T07:30:50.570Z,4.5
2023-12-18T07:35:50.491Z,5.1
2023-12-18T07:40:50.372Z,5.1
2023-12-18T07:45:50.379Z,4.3
2023-12-18T07:50:50.349Z,4.6
2023-12-18T07:55:51.195Z,4.9
2023-12-18T08:00:50.295Z,4.3
2023-12-18T08:05:50.261Z,4.7
2023-12-18T08:10:50.294Z,4.7
2023-12-18T08:15:50.242Z,4.8
2023-12-18T08:20:50.211Z,4.6
2023-12-18T08:25:50.226Z,4.3
2023-12-18T08:30:50.269Z,4.4
2023-12-18T08:35:50.169Z,4.5
2023-12-18T08:40:50.156Z,4.8
2023-12-18T08:45:50.235Z,5.5
2023-12-18T08:50:50.140Z,5.4
2023-12-18T08:55:50.142Z,4.9
2023-12-18T09:00:50.153Z,5.3
2023-12-18T09:05:50.495Z,5.4
2023-12-18T09:10:50.003Z,4.4
2023-12-18T09:15:50.152Z,4.1
2023-12-18T09:20:49.955Z,4.3
2023-12-18T09:25:50.017Z,5
2023-12-18T09:30:50.165Z,4.8
2023-12-18T09:35:49.929Z,4.8
2023-12-18T09:40:49.962Z,4.6
2023-12-18T09:45:49.947Z,5.8
2023-12-18T09:50:49.933Z,4.9
2023-12-18T09:55:49.905Z,5.5
2023-12-18T10:00:50.042Z,4.6
2023-12-18T10:05:50.078Z,4.9
2023-12-18T10:10:50.034Z,3.9
2023-12-18T10:15:50.112Z,5.3
2023-12-18T10:20:50.059Z,4.4
2023-12-18T10:25:50.047Z,4.6
2023-12-18T10:30:50.164Z,4.4
2023-12-18T10:35:50.115Z,3.9
2023-12-18T10:40:50.218Z,4.6
2023-12-18T10:45:50.416Z,4.3
2023-12-18T10:50:50.319Z,4.5
2023-12-18T10:55:50.331Z,4.2
2023-12-18T11:00:50.442Z,4
2023-12-18T11:05:50.343Z,3.9
2023-12-18T11:10:50.350Z,4.4
2023-12-18T11:15:50.454Z,3.5
2023-12-18T11:20:50.474Z,4.1
2023-12-18T11:25:52.105Z,4.3
2023-12-18T11:30:51.040Z,4.2
2023-12-18T11:35:50.606Z,4
2023-12-18T11:40:50.493Z,4.1
2023-12-18T11:45:50.477Z,3.7
2023-12-18T11:50:50.522Z,3.8
2023-12-18T11:55:50.557Z,4
2023-12-18T12:00:50.641Z,3.7
2023-12-18T12:05:50.628Z,3.8
2023-12-18T12:10:50.574Z,3.4
2023-12-18T12:15:50.666Z,4
2023-12-18T12:20:50.712Z,3.4
2023-12-18T12:25:50.689Z,3.5
2023-12-18T12:30:50.792Z,3.3
2023-12-18T12:35:50.784Z,3.2
2023-12-18T12:40:50.793Z,3.8
2023-12-18T12:45:50.775Z,3.1
2023-12-18T12:50:50.800Z,3.2
2023-12-18T12:55:50.873Z,3.4
2023-12-18T13:00:50.944Z,3
2023-12-18T13:05:50.963Z,3.1
2023-12-18T13:10:50.947Z,3.5
2023-12-18T13:15:51.117Z,3.2
2023-12-18T13:20:51.031Z,3.2
2023-12-18T13:25:51.039Z,3
2023-12-18T13:30:51.144Z,3.1
2023-12-18T13:35:51.110Z,2.8
2023-12-18T13:40:51.101Z,3.3
2023-12-18T13:45:51.189Z,3.1
2023-12-18T13:50:51.201Z,3.2
2023-12-18T13:55:51.245Z,3.5
2023-12-18T14:00:51.439Z,3.2
2023-12-18T14:05:51.385Z,3.2
2023-12-18T14:10:51.538Z,3.1
2023-12-18T14:15:51.659Z,3.2
2023-12-18T14:20:51.721Z,2.5
2023-12-18T14:25:51.737Z,2.5
2023-12-18T14:30:51.838Z,2.5
2023-12-18T14:35:51.913Z,2.9
2023-12-18T14:40:51.956Z,2.7
2023-12-18T14:45:52.093Z,2.4
2023-12-18T14:50:52.123Z,2.8
2023-12-18T14:55:52.241Z,2.5
2023-12-18T15:00:52.342Z,2.9
2023-12-18T15:05:56.263Z,3.1
2023-12-18T15:10:52.427Z,2.3
2023-12-18T15:15:52.548Z,2.7
2023-12-18T15:20:52.578Z,2
2023-12-18T15:25:52.706Z,2.2
2023-12-18T15:30:52.825Z,2.4
2023-12-18T15:35:56.267Z,2.4
2023-12-18T15:40:52.980Z,2.3
2023-12-18T15:45:53.074Z,2.8
2023-12-18T15:50:53.166Z,2
2023-12-18T15:55:53.101Z,3.2
2023-12-18T16:00:53.180Z,2.7
2023-12-18T16:05:53.233Z,2.6
2023-12-18T16:10:53.246Z,2.3
2023-12-18T16:15:53.420Z,2.6
2023-12-18T16:20:53.359Z,3
2023-12-18T16:25:53.380Z,2.2
2023-12-18T16:30:56.441Z,2.6
2023-12-18T16:35:53.686Z,2.2
2023-12-18T16:40:53.604Z,2.5
2023-12-18T16:45:53.707Z,2.4
2023-12-18T16:50:53.567Z,2.5
2023-12-18T16:55:53.619Z,2.2
2023-12-18T17:00:53.753Z,2.4
2023-12-18T17:05:53.756Z,2.3
2023-12-18T17:10:53.716Z,2.8
2023-12-18T17:15:53.810Z,2.6
2023-12-18T17:25:53.779Z,2.8
2023-12-18T17:30:56.479Z,2.8
2023-12-18T17:35:53.787Z,2.4
2023-12-18T17:40:53.781Z,2.7
2023-12-18T17:45:53.889Z,2.8
2023-12-18T17:50:53.916Z,2.4
2023-12-18T17:55:53.842Z,2.8
2023-12-18T18:00:53.978Z,2.3
2023-12-18T18:05:53.972Z,2.6
2023-12-18T18:10:54.003Z,2.3
2023-12-18T18:15:54.088Z,2.3
2023-12-18T18:20:54.026Z,2.5
2023-12-18T18:25:54.062Z,2.1
2023-12-18T18:30:54.091Z,2.8
2023-12-18T18:35:54.107Z,2.9
2023-12-18T18:40:54.125Z,2.4
2023-12-18T18:45:54.136Z,2.9
2023-12-18T18:50:54.164Z,2
2023-12-18T18:55:54.228Z,2.9
2023-12-18T19:00:54.303Z,2.3
2023-12-18T19:05:54.155Z,2.6
2023-12-18T19:10:54.215Z,2.9
2023-12-18T19:15:54.237Z,3
2023-12-18T19:20:54.195Z,2.5
2023-12-18T19:25:54.182Z,2.9
2023-12-18T19:30:55.414Z,2.5
2023-12-18T19:35:54.175Z,3.1
2023-12-18T19:40:54.159Z,3.1
2023-12-18T19:45:54.219Z,2.8
2023-12-18T19:50:54.115Z,3.2
2023-12-18T19:55:56.807Z,3.5
2023-12-18T20:00:54.210Z,3.2
2023-12-18T20:05:54.170Z,3.2
2023-12-18T20:10:54.129Z,3.5
2023-12-18T20:15:54.099Z,3.4
2023-12-18T20:20:54.044Z,3.2
2023-12-18T20:25:54.080Z,3.3
2023-12-18T20:30:54.133Z,3.6
2023-12-18T20:35:54.057Z,3.2
2023-12-18T20:40:53.966Z,3.5
2023-12-18T20:45:54.063Z,4
2023-12-18T20:50:53.953Z,3.8
2023-12-18T20:55:54.035Z,3.8
2023-12-18T21:00:53.927Z,4
2023-12-18T21:05:53.942Z,4
2023-12-18T21:10:53.829Z,4.5
2023-12-18T21:15:53.824Z,4
2023-12-18T21:20:53.777Z,4.1
2023-12-18T21:25:53.754Z,4.9
2023-12-18T21:30:53.720Z,4.5
2023-12-18T21:35:53.640Z,4.9
2023-12-18T21:40:53.619Z,4.7
2023-12-18T21:45:53.622Z,4
2023-12-18T21:50:53.521Z,4.9
2023-12-18T21:55:53.456Z,5.1
2023-12-18T22:00:53.784Z,4.6
2023-12-18T22:05:53.369Z,4.2
2023-12-18T22:10:53.383Z,4.8
2023-12-18T22:15:53.304Z,3.7
2023-12-18T22:21:01.024Z,4.1
2023-12-18T22:25:53.324Z,4.3
2023-12-18T22:30:53.175Z,4.7
2023-12-18T22:35:53.166Z,3.9
2023-12-18T22:40:53.120Z,4.6
2023-12-18T22:45:54.049Z,4.1
2023-12-18T22:50:53.053Z,4.2
2023-12-18T22:55:52.949Z,5.5
2023-12-18T23:00:53.020Z,5
2023-12-18T23:05:52.972Z,5.5
2023-12-18T23:10:52.922Z,5.5
2023-12-18T23:15:52.823Z,5.6
2023-12-18T23:20:52.805Z,5.2
2023-12-18T23:25:52.811Z,5.4
2023-12-18T23:30:52.830Z,4.9
2023-12-18T23:35:56.897Z,4.4
2023-12-18T23:40:52.656Z,4.9
2023-12-18T23:45:52.708Z,4.4
2023-12-18T23:50:52.580Z,5.5
2023-12-18T23:55:52.545Z,4.9
